Terminal Aerodrome Forecast
Issued by NWS

Home | Current Version | Previous Version | Text Only | Print | Product List | Glossary On
Versions: 1 2 3 4 5 6 7 8 9 10 11 12
000
FTAK31 PAJN 042324
TAFAPG
TAF
PAPG 042324Z 0500/0524 07004KT P6SM OVC090
     FM050800 09006KT P6SM VCSH OVC050
     FM051000 10005KT P6SM -RA BKN025 OVC040
     FM051300 12008KT 6SM -RA BR BKN025 OVC040 WS020/13025KT
     FM051800 11005KT P6SM -RA BKN030 OVC040 WS020/13025KT
     FM052000 06005KT P6SM -SHRA SCT030 OVC045
      AMD LTD TO CLD VIS AND WIND 0506/0515=

USA.gov is the U.S. government's official web portal to all federal, state and local government web resources and services.